sensor_id;sensor_type;location;lat;lon;timestamp;P1;durP1;ratioP1;P2;durP2;ratioP2
61897;SDS011;47850;50.274;18.908;2023-05-21T00:01:44;15.60;;;10.60;;
61897;SDS011;47850;50.274;18.908;2023-05-21T00:04:14;15.90;;;11.80;;
61897;SDS011;47850;50.274;18.908;2023-05-21T00:06:42;15.50;;;11.10;;
61897;SDS011;47850;50.274;18.908;2023-05-21T00:09:10;16.60;;;10.40;;
61897;SDS011;47850;50.274;18.908;2023-05-21T00:11:39;20.20;;;11.60;;
61897;SDS011;47850;50.274;18.908;2023-05-21T00:14:07;13.40;;;10.00;;
61897;SDS011;47850;50.274;18.908;2023-05-21T00:16:34;16.30;;;10.90;;
61897;SDS011;47850;50.274;18.908;2023-05-21T00:19:02;19.10;;;11.00;;
61897;SDS011;47850;50.274;18.908;2023-05-21T00:21:30;21.60;;;13.60;;
61897;SDS011;47850;50.274;18.908;2023-05-21T00:23:58;30.90;;;14.80;;
61897;SDS011;47850;50.274;18.908;2023-05-21T00:26:26;18.50;;;12.30;;
61897;SDS011;47850;50.274;18.908;2023-05-21T00:28:53;19.60;;;11.80;;
61897;SDS011;47850;50.274;18.908;2023-05-21T00:31:21;20.50;;;11.40;;
61897;SDS011;47850;50.274;18.908;2023-05-21T00:33:49;17.80;;;12.10;;
61897;SDS011;47850;50.274;18.908;2023-05-21T00:36:17;16.40;;;11.10;;
61897;SDS011;47850;50.274;18.908;2023-05-21T00:38:50;17.70;;;11.90;;
61897;SDS011;47850;50.274;18.908;2023-05-21T00:41:18;16.90;;;11.60;;
61897;SDS011;47850;50.274;18.908;2023-05-21T00:43:46;14.60;;;10.00;;
61897;SDS011;47850;50.274;18.908;2023-05-21T00:46:14;15.20;;;11.20;;
61897;SDS011;47850;50.274;18.908;2023-05-21T00:48:46;14.70;;;10.40;;
61897;SDS011;47850;50.274;18.908;2023-05-21T00:51:15;17.70;;;11.10;;
61897;SDS011;47850;50.274;18.908;2023-05-21T00:53:44;15.50;;;11.40;;
61897;SDS011;47850;50.274;18.908;2023-05-21T00:56:13;17.10;;;10.70;;
61897;SDS011;47850;50.274;18.908;2023-05-21T00:58:40;16.60;;;11.30;;
61897;SDS011;47850;50.274;18.908;2023-05-21T01:01:08;13.90;;;9.80;;
61897;SDS011;47850;50.274;18.908;2023-05-21T01:03:40;15.20;;;10.40;;
61897;SDS011;47850;50.274;18.908;2023-05-21T01:06:09;15.30;;;10.40;;
61897;SDS011;47850;50.274;18.908;2023-05-21T01:08:40;17.10;;;10.00;;
61897;SDS011;47850;50.274;18.908;2023-05-21T01:11:08;16.20;;;9.80;;
61897;SDS011;47850;50.274;18.908;2023-05-21T01:13:38;15.00;;;10.40;;
61897;SDS011;47850;50.274;18.908;2023-05-21T01:16:07;13.40;;;9.60;;
61897;SDS011;47850;50.274;18.908;2023-05-21T01:18:37;14.80;;;9.40;;
61897;SDS011;47850;50.274;18.908;2023-05-21T01:21:05;13.80;;;9.70;;
61897;SDS011;47850;50.274;18.908;2023-05-21T01:23:36;18.40;;;9.90;;
61897;SDS011;47850;50.274;18.908;2023-05-21T01:26:03;13.70;;;9.30;;
61897;SDS011;47850;50.274;18.908;2023-05-21T01:28:33;15.30;;;9.80;;
61897;SDS011;47850;50.274;18.908;2023-05-21T01:31:04;14.40;;;9.90;;
61897;SDS011;47850;50.274;18.908;2023-05-21T01:33:46;13.40;;;9.20;;
61897;SDS011;47850;50.274;18.908;2023-05-21T01:36:23;14.70;;;8.60;;
61897;SDS011;47850;50.274;18.908;2023-05-21T01:39:05;19.30;;;9.60;;
61897;SDS011;47850;50.274;18.908;2023-05-21T01:41:41;14.50;;;9.10;;
61897;SDS011;47850;50.274;18.908;2023-05-21T01:44:12;13.40;;;9.40;;
61897;SDS011;47850;50.274;18.908;2023-05-21T01:46:44;11.00;;;8.30;;
61897;SDS011;47850;50.274;18.908;2023-05-21T01:49:12;14.50;;;8.60;;
61897;SDS011;47850;50.274;18.908;2023-05-21T01:54:10;11.80;;;9.10;;
61897;SDS011;47850;50.274;18.908;2023-05-21T01:56:38;12.60;;;8.40;;
61897;SDS011;47850;50.274;18.908;2023-05-21T01:59:06;17.40;;;9.20;;
61897;SDS011;47850;50.274;18.908;2023-05-21T02:01:33;16.00;;;9.10;;
61897;SDS011;47850;50.274;18.908;2023-05-21T02:04:01;10.80;;;7.90;;
61897;SDS011;47850;50.274;18.908;2023-05-21T02:06:29;16.40;;;8.70;;
61897;SDS011;47850;50.274;18.908;2023-05-21T02:08:58;12.40;;;9.00;;
61897;SDS011;47850;50.274;18.908;2023-05-21T02:11:25;12.30;;;8.40;;
61897;SDS011;47850;50.274;18.908;2023-05-21T02:13:54;15.70;;;8.60;;
61897;SDS011;47850;50.274;18.908;2023-05-21T02:16:24;16.60;;;9.20;;
61897;SDS011;47850;50.274;18.908;2023-05-21T02:18:51;14.80;;;8.80;;
61897;SDS011;47850;50.274;18.908;2023-05-21T02:21:23;10.40;;;8.40;;
61897;SDS011;47850;50.274;18.908;2023-05-21T02:23:51;14.50;;;8.40;;
61897;SDS011;47850;50.274;18.908;2023-05-21T02:26:19;11.50;;;8.30;;
61897;SDS011;47850;50.274;18.908;2023-05-21T02:28:48;16.20;;;8.30;;
61897;SDS011;47850;50.274;18.908;2023-05-21T02:31:16;18.20;;;8.40;;
61897;SDS011;47850;50.274;18.908;2023-05-21T02:33:44;13.20;;;8.40;;
61897;SDS011;47850;50.274;18.908;2023-05-21T02:36:11;12.90;;;8.70;;
61897;SDS011;47850;50.274;18.908;2023-05-21T02:38:39;16.70;;;9.00;;
61897;SDS011;47850;50.274;18.908;2023-05-21T02:41:10;10.20;;;8.20;;
61897;SDS011;47850;50.274;18.908;2023-05-21T02:43:38;15.40;;;8.10;;
61897;SDS011;47850;50.274;18.908;2023-05-21T02:46:06;13.40;;;8.30;;
61897;SDS011;47850;50.274;18.908;2023-05-21T02:48:34;12.80;;;7.70;;
61897;SDS011;47850;50.274;18.908;2023-05-21T02:51:02;12.90;;;8.50;;
61897;SDS011;47850;50.274;18.908;2023-05-21T02:53:30;13.30;;;8.00;;
61897;SDS011;47850;50.274;18.908;2023-05-21T02:55:57;15.80;;;7.80;;
61897;SDS011;47850;50.274;18.908;2023-05-21T02:58:25;10.80;;;7.50;;
61897;SDS011;47850;50.274;18.908;2023-05-21T03:00:53;12.20;;;8.10;;
61897;SDS011;47850;50.274;18.908;2023-05-21T03:03:21;12.30;;;7.70;;
61897;SDS011;47850;50.274;18.908;2023-05-21T03:05:49;12.00;;;7.70;;
61897;SDS011;47850;50.274;18.908;2023-05-21T03:08:16;12.10;;;7.90;;
61897;SDS011;47850;50.274;18.908;2023-05-21T03:10:44;11.00;;;7.70;;
61897;SDS011;47850;50.274;18.908;2023-05-21T03:13:12;11.10;;;7.90;;
61897;SDS011;47850;50.274;18.908;2023-05-21T03:15:40;12.50;;;8.20;;
61897;SDS011;47850;50.274;18.908;2023-05-21T03:18:10;12.30;;;8.50;;
61897;SDS011;47850;50.274;18.908;2023-05-21T03:20:39;11.00;;;8.00;;
61897;SDS011;47850;50.274;18.908;2023-05-21T03:23:16;15.50;;;7.90;;
61897;SDS011;47850;50.274;18.908;2023-05-21T03:25:44;14.80;;;7.70;;
61897;SDS011;47850;50.274;18.908;2023-05-21T03:28:12;16.70;;;8.30;;
61897;SDS011;47850;50.274;18.908;2023-05-21T03:30:40;13.10;;;8.00;;
61897;SDS011;47850;50.274;18.908;2023-05-21T03:33:08;11.50;;;8.30;;
61897;SDS011;47850;50.274;18.908;2023-05-21T03:35:37;13.50;;;8.10;;
61897;SDS011;47850;50.274;18.908;2023-05-21T03:38:05;12.90;;;7.60;;
61897;SDS011;47850;50.274;18.908;2023-05-21T03:40:32;12.30;;;8.10;;
61897;SDS011;47850;50.274;18.908;2023-05-21T03:43:00;14.00;;;8.10;;
61897;SDS011;47850;50.274;18.908;2023-05-21T03:45:28;9.10;;;7.30;;
61897;SDS011;47850;50.274;18.908;2023-05-21T03:47:56;14.60;;;8.00;;
61897;SDS011;47850;50.274;18.908;2023-05-21T03:50:23;11.30;;;7.70;;
61897;SDS011;47850;50.274;18.908;2023-05-21T03:52:51;11.50;;;7.50;;
61897;SDS011;47850;50.274;18.908;2023-05-21T03:55:19;13.70;;;7.80;;
61897;SDS011;47850;50.274;18.908;2023-05-21T03:57:47;12.00;;;7.40;;
61897;SDS011;47850;50.274;18.908;2023-05-21T04:00:14;11.10;;;7.70;;
61897;SDS011;47850;50.274;18.908;2023-05-21T04:02:42;11.50;;;7.20;;
61897;SDS011;47850;50.274;18.908;2023-05-21T04:05:10;14.40;;;7.90;;
61897;SDS011;47850;50.274;18.908;2023-05-21T04:07:38;13.60;;;8.10;;
61897;SDS011;47850;50.274;18.908;2023-05-21T04:10:08;10.20;;;7.50;;
61897;SDS011;47850;50.274;18.908;2023-05-21T04:12:36;12.90;;;7.80;;
61897;SDS011;47850;50.274;18.908;2023-05-21T04:15:04;13.50;;;7.30;;
61897;SDS011;47850;50.274;18.908;2023-05-21T04:17:33;13.20;;;7.60;;
61897;SDS011;47850;50.274;18.908;2023-05-21T04:20:01;15.40;;;7.10;;
61897;SDS011;47850;50.274;18.908;2023-05-21T04:22:30;14.30;;;7.80;;
61897;SDS011;47850;50.274;18.908;2023-05-21T04:24:58;15.80;;;7.50;;
61897;SDS011;47850;50.274;18.908;2023-05-21T04:27:26;9.50;;;7.20;;
61897;SDS011;47850;50.274;18.908;2023-05-21T04:29:53;14.00;;;7.70;;
61897;SDS011;47850;50.274;18.908;2023-05-21T04:32:21;9.70;;;6.70;;
61897;SDS011;47850;50.274;18.908;2023-05-21T04:34:49;10.20;;;6.90;;
61897;SDS011;47850;50.274;18.908;2023-05-21T04:37:17;11.80;;;7.30;;
61897;SDS011;47850;50.274;18.908;2023-05-21T04:39:45;9.30;;;7.10;;
61897;SDS011;47850;50.274;18.908;2023-05-21T04:42:13;12.30;;;7.00;;
61897;SDS011;47850;50.274;18.908;2023-05-21T04:44:41;11.60;;;7.00;;
61897;SDS011;47850;50.274;18.908;2023-05-21T04:47:10;12.00;;;7.00;;
61897;SDS011;47850;50.274;18.908;2023-05-21T04:52:08;13.10;;;6.60;;
61897;SDS011;47850;50.274;18.908;2023-05-21T04:54:37;11.40;;;7.50;;
61897;SDS011;47850;50.274;18.908;2023-05-21T04:57:05;10.00;;;7.00;;
61897;SDS011;47850;50.274;18.908;2023-05-21T04:59:33;12.30;;;6.50;;
61897;SDS011;47850;50.274;18.908;2023-05-21T05:02:01;10.90;;;6.60;;
61897;SDS011;47850;50.274;18.908;2023-05-21T05:04:30;10.70;;;6.70;;
61897;SDS011;47850;50.274;18.908;2023-05-21T05:06:58;11.10;;;6.10;;
61897;SDS011;47850;50.274;18.908;2023-05-21T05:09:26;10.00;;;6.30;;
61897;SDS011;47850;50.274;18.908;2023-05-21T05:11:54;9.70;;;6.00;;
61897;SDS011;47850;50.274;18.908;2023-05-21T05:14:22;11.60;;;5.80;;
61897;SDS011;47850;50.274;18.908;2023-05-21T05:16:49;10.50;;;5.90;;
61897;SDS011;47850;50.274;18.908;2023-05-21T05:19:17;12.20;;;6.40;;
61897;SDS011;47850;50.274;18.908;2023-05-21T05:21:45;12.00;;;7.10;;
61897;SDS011;47850;50.274;18.908;2023-05-21T05:24:13;13.40;;;6.50;;
61897;SDS011;47850;50.274;18.908;2023-05-21T05:26:42;17.80;;;9.30;;
61897;SDS011;47850;50.274;18.908;2023-05-21T05:29:10;10.90;;;7.30;;
61897;SDS011;47850;50.274;18.908;2023-05-21T05:31:37;19.10;;;9.50;;
61897;SDS011;47850;50.274;18.908;2023-05-21T05:34:05;27.00;;;9.80;;
61897;SDS011;47850;50.274;18.908;2023-05-21T05:36:33;43.50;;;20.50;;
61897;SDS011;47850;50.274;18.908;2023-05-21T05:39:01;19.80;;;8.80;;
61897;SDS011;47850;50.274;18.908;2023-05-21T05:41:28;18.40;;;9.20;;
61897;SDS011;47850;50.274;18.908;2023-05-21T05:43:56;15.50;;;8.10;;
61897;SDS011;47850;50.274;18.908;2023-05-21T05:46:24;15.30;;;7.30;;
61897;SDS011;47850;50.274;18.908;2023-05-21T05:48:52;7.80;;;6.00;;
61897;SDS011;47850;50.274;18.908;2023-05-21T05:51:20;13.90;;;7.70;;
61897;SDS011;47850;50.274;18.908;2023-05-21T05:53:47;10.40;;;6.10;;
61897;SDS011;47850;50.274;18.908;2023-05-21T05:56:15;17.30;;;9.50;;
61897;SDS011;47850;50.274;18.908;2023-05-21T05:58:43;10.40;;;5.70;;
61897;SDS011;47850;50.274;18.908;2023-05-21T06:01:11;14.60;;;7.20;;
61897;SDS011;47850;50.274;18.908;2023-05-21T06:03:40;14.30;;;5.90;;
61897;SDS011;47850;50.274;18.908;2023-05-21T06:06:07;16.40;;;8.00;;
61897;SDS011;47850;50.274;18.908;2023-05-21T06:08:35;7.90;;;5.70;;
61897;SDS011;47850;50.274;18.908;2023-05-21T06:11:03;15.00;;;7.90;;
61897;SDS011;47850;50.274;18.908;2023-05-21T06:13:31;12.30;;;7.00;;
61897;SDS011;47850;50.274;18.908;2023-05-21T06:15:58;8.60;;;5.70;;
61897;SDS011;47850;50.274;18.908;2023-05-21T06:18:26;14.30;;;6.10;;
61897;SDS011;47850;50.274;18.908;2023-05-21T06:20:54;15.30;;;7.00;;
61897;SDS011;47850;50.274;18.908;2023-05-21T06:23:21;16.70;;;8.00;;
61897;SDS011;47850;50.274;18.908;2023-05-21T06:25:49;9.30;;;6.40;;
61897;SDS011;47850;50.274;18.908;2023-05-21T06:28:17;9.90;;;5.90;;
61897;SDS011;47850;50.274;18.908;2023-05-21T06:30:45;9.30;;;5.30;;
61897;SDS011;47850;50.274;18.908;2023-05-21T06:33:12;16.30;;;5.90;;
61897;SDS011;47850;50.274;18.908;2023-05-21T06:35:40;12.10;;;5.70;;
61897;SDS011;47850;50.274;18.908;2023-05-21T06:38:08;11.80;;;6.60;;
61897;SDS011;47850;50.274;18.908;2023-05-21T06:40:35;17.00;;;7.90;;
61897;SDS011;47850;50.274;18.908;2023-05-21T06:43:03;16.70;;;8.70;;
61897;SDS011;47850;50.274;18.908;2023-05-21T06:45:31;14.30;;;6.50;;
61897;SDS011;47850;50.274;18.908;2023-05-21T06:47:59;9.00;;;6.00;;
61897;SDS011;47850;50.274;18.908;2023-05-21T06:50:27;8.80;;;5.20;;
61897;SDS011;47850;50.274;18.908;2023-05-21T06:52:55;11.30;;;6.00;;
61897;SDS011;47850;50.274;18.908;2023-05-21T06:55:22;19.00;;;9.70;;
61897;SDS011;47850;50.274;18.908;2023-05-21T06:57:50;14.00;;;6.50;;
61897;SDS011;47850;50.274;18.908;2023-05-21T07:00:18;10.70;;;5.40;;
61897;SDS011;47850;50.274;18.908;2023-05-21T07:02:45;10.90;;;6.80;;
61897;SDS011;47850;50.274;18.908;2023-05-21T07:05:13;10.20;;;5.60;;
61897;SDS011;47850;50.274;18.908;2023-05-21T07:07:41;10.80;;;4.90;;
61897;SDS011;47850;50.274;18.908;2023-05-21T07:10:09;8.00;;;4.90;;
61897;SDS011;47850;50.274;18.908;2023-05-21T07:12:37;10.60;;;4.80;;
61897;SDS011;47850;50.274;18.908;2023-05-21T07:15:07;11.50;;;5.40;;
61897;SDS011;47850;50.274;18.908;2023-05-21T07:17:35;10.10;;;4.60;;
61897;SDS011;47850;50.274;18.908;2023-05-21T07:20:04;7.80;;;4.50;;
61897;SDS011;47850;50.274;18.908;2023-05-21T07:22:37;10.00;;;4.90;;
61897;SDS011;47850;50.274;18.908;2023-05-21T07:25:05;8.90;;;4.90;;
61897;SDS011;47850;50.274;18.908;2023-05-21T07:27:33;8.30;;;4.50;;
61897;SDS011;47850;50.274;18.908;2023-05-21T07:30:01;10.30;;;5.00;;
61897;SDS011;47850;50.274;18.908;2023-05-21T07:32:29;7.20;;;4.00;;
61897;SDS011;47850;50.274;18.908;2023-05-21T07:34:58;7.90;;;4.20;;
61897;SDS011;47850;50.274;18.908;2023-05-21T07:37:30;8.70;;;3.90;;
61897;SDS011;47850;50.274;18.908;2023-05-21T07:39:57;11.90;;;4.30;;
61897;SDS011;47850;50.274;18.908;2023-05-21T07:42:25;9.10;;;4.20;;
61897;SDS011;47850;50.274;18.908;2023-05-21T07:44:53;11.00;;;6.60;;
61897;SDS011;47850;50.274;18.908;2023-05-21T07:47:21;10.10;;;5.90;;
61897;SDS011;47850;50.274;18.908;2023-05-21T07:49:49;14.00;;;5.90;;
61897;SDS011;47850;50.274;18.908;2023-05-21T07:52:17;15.70;;;7.10;;
61897;SDS011;47850;50.274;18.908;2023-05-21T07:54:45;9.70;;;4.60;;
61897;SDS011;47850;50.274;18.908;2023-05-21T07:57:13;12.30;;;4.20;;
61897;SDS011;47850;50.274;18.908;2023-05-21T07:59:41;8.70;;;4.10;;
61897;SDS011;47850;50.274;18.908;2023-05-21T08:02:09;7.20;;;4.00;;
61897;SDS011;47850;50.274;18.908;2023-05-21T08:04:38;14.30;;;4.80;;
61897;SDS011;47850;50.274;18.908;2023-05-21T08:07:06;17.80;;;6.70;;
61897;SDS011;47850;50.274;18.908;2023-05-21T08:09:33;10.40;;;6.10;;
61897;SDS011;47850;50.274;18.908;2023-05-21T08:12:01;12.20;;;6.10;;
61897;SDS011;47850;50.274;18.908;2023-05-21T08:14:29;10.20;;;6.40;;
61897;SDS011;47850;50.274;18.908;2023-05-21T08:16:57;10.70;;;6.50;;
61897;SDS011;47850;50.274;18.908;2023-05-21T08:19:25;8.00;;;4.60;;
61897;SDS011;47850;50.274;18.908;2023-05-21T08:21:53;12.60;;;4.10;;
61897;SDS011;47850;50.274;18.908;2023-05-21T08:24:20;7.90;;;4.20;;
61897;SDS011;47850;50.274;18.908;2023-05-21T08:26:49;6.40;;;3.40;;
61897;SDS011;47850;50.274;18.908;2023-05-21T08:29:17;7.00;;;3.60;;
61897;SDS011;47850;50.274;18.908;2023-05-21T08:31:45;7.30;;;4.00;;
61897;SDS011;47850;50.274;18.908;2023-05-21T08:34:12;8.50;;;3.80;;
61897;SDS011;47850;50.274;18.908;2023-05-21T08:36:40;4.80;;;3.40;;
61897;SDS011;47850;50.274;18.908;2023-05-21T08:39:09;9.10;;;4.10;;
61897;SDS011;47850;50.274;18.908;2023-05-21T08:41:37;19.50;;;3.50;;
61897;SDS011;47850;50.274;18.908;2023-05-21T08:44:08;4.70;;;3.10;;
61897;SDS011;47850;50.274;18.908;2023-05-21T08:46:38;7.80;;;3.40;;
61897;SDS011;47850;50.274;18.908;2023-05-21T08:49:11;17.60;;;3.90;;
61897;SDS011;47850;50.274;18.908;2023-05-21T08:51:40;10.40;;;3.40;;
61897;SDS011;47850;50.274;18.908;2023-05-21T08:54:08;8.80;;;3.40;;
61897;SDS011;47850;50.274;18.908;2023-05-21T08:56:36;7.30;;;3.40;;
61897;SDS011;47850;50.274;18.908;2023-05-21T08:59:07;20.80;;;4.10;;
61897;SDS011;47850;50.274;18.908;2023-05-21T09:01:35;9.60;;;4.30;;
61897;SDS011;47850;50.274;18.908;2023-05-21T09:04:04;18.60;;;5.60;;
61897;SDS011;47850;50.274;18.908;2023-05-21T09:06:32;5.90;;;3.60;;
61897;SDS011;47850;50.274;18.908;2023-05-21T09:09:02;7.50;;;3.50;;
61897;SDS011;47850;50.274;18.908;2023-05-21T09:11:36;6.50;;;3.50;;
61897;SDS011;47850;50.274;18.908;2023-05-21T09:14:04;9.60;;;4.00;;
61897;SDS011;47850;50.274;18.908;2023-05-21T09:16:32;9.00;;;4.90;;
61897;SDS011;47850;50.274;18.908;2023-05-21T09:19:00;7.40;;;2.90;;
61897;SDS011;47850;50.274;18.908;2023-05-21T09:21:29;7.90;;;3.90;;
61897;SDS011;47850;50.274;18.908;2023-05-21T09:23:58;5.80;;;2.90;;
61897;SDS011;47850;50.274;18.908;2023-05-21T09:26:27;8.20;;;3.90;;
61897;SDS011;47850;50.274;18.908;2023-05-21T09:28:55;7.00;;;3.30;;
61897;SDS011;47850;50.274;18.908;2023-05-21T09:33:53;9.00;;;3.70;;
61897;SDS011;47850;50.274;18.908;2023-05-21T09:36:22;9.50;;;3.60;;
61897;SDS011;47850;50.274;18.908;2023-05-21T09:38:50;22.30;;;11.90;;
61897;SDS011;47850;50.274;18.908;2023-05-21T09:41:19;11.20;;;6.30;;
61897;SDS011;47850;50.274;18.908;2023-05-21T09:43:48;12.20;;;6.30;;
61897;SDS011;47850;50.274;18.908;2023-05-21T09:46:16;12.90;;;3.60;;
61897;SDS011;47850;50.274;18.908;2023-05-21T09:48:47;20.10;;;4.70;;
61897;SDS011;47850;50.274;18.908;2023-05-21T09:51:15;10.80;;;3.20;;
61897;SDS011;47850;50.274;18.908;2023-05-21T09:53:53;12.20;;;4.40;;
61897;SDS011;47850;50.274;18.908;2023-05-21T09:56:24;9.10;;;4.20;;
61897;SDS011;47850;50.274;18.908;2023-05-21T09:58:58;6.40;;;3.60;;
61897;SDS011;47850;50.274;18.908;2023-05-21T10:01:31;5.70;;;3.40;;
61897;SDS011;47850;50.274;18.908;2023-05-21T10:04:02;11.40;;;2.60;;
61897;SDS011;47850;50.274;18.908;2023-05-21T10:06:40;13.40;;;4.50;;
61897;SDS011;47850;50.274;18.908;2023-05-21T10:09:10;7.50;;;3.40;;
61897;SDS011;47850;50.274;18.908;2023-05-21T10:11:39;9.00;;;3.30;;
61897;SDS011;47850;50.274;18.908;2023-05-21T10:14:14;15.90;;;2.90;;
61897;SDS011;47850;50.274;18.908;2023-05-21T10:16:43;60.60;;;5.80;;
61897;SDS011;47850;50.274;18.908;2023-05-21T10:19:14;11.90;;;3.50;;
61897;SDS011;47850;50.274;18.908;2023-05-21T10:21:43;6.80;;;2.60;;
61897;SDS011;47850;50.274;18.908;2023-05-21T10:24:12;8.80;;;3.50;;
61897;SDS011;47850;50.274;18.908;2023-05-21T10:26:41;8.60;;;2.70;;
61897;SDS011;47850;50.274;18.908;2023-05-21T10:29:11;8.90;;;2.30;;
61897;SDS011;47850;50.274;18.908;2023-05-21T10:31:42;13.30;;;3.20;;
61897;SDS011;47850;50.274;18.908;2023-05-21T10:34:15;11.00;;;3.40;;
61897;SDS011;47850;50.274;18.908;2023-05-21T10:36:44;4.80;;;3.20;;
61897;SDS011;47850;50.274;18.908;2023-05-21T10:39:15;6.00;;;2.70;;
61897;SDS011;47850;50.274;18.908;2023-05-21T10:41:52;6.20;;;2.50;;
61897;SDS011;47850;50.274;18.908;2023-05-21T10:56:39;11.10;;;3.80;;
61897;SDS011;47850;50.274;18.908;2023-05-21T11:04:58;8.70;;;2.70;;
61897;SDS011;47850;50.274;18.908;2023-05-21T11:13:11;4.90;;;2.50;;
61897;SDS011;47850;50.274;18.908;2023-05-21T11:21:07;8.70;;;2.80;;
61897;SDS011;47850;50.274;18.908;2023-05-21T11:23:51;9.50;;;2.90;;
61897;SDS011;47850;50.274;18.908;2023-05-21T11:26:24;7.60;;;2.70;;
61897;SDS011;47850;50.274;18.908;2023-05-21T11:31:31;5.60;;;2.20;;
61897;SDS011;47850;50.274;18.908;2023-05-21T11:34:12;4.70;;;2.10;;
61897;SDS011;47850;50.274;18.908;2023-05-21T11:36:48;5.50;;;2.50;;
61897;SDS011;47850;50.274;18.908;2023-05-21T11:39:16;9.00;;;2.40;;
61897;SDS011;47850;50.274;18.908;2023-05-21T11:41:51;9.80;;;3.40;;
61897;SDS011;47850;50.274;18.908;2023-05-21T11:45:01;7.00;;;2.50;;
61897;SDS011;47850;50.274;18.908;2023-05-21T11:47:23;6.70;;;2.50;;
61897;SDS011;47850;50.274;18.908;2023-05-21T11:52:21;8.90;;;2.60;;
61897;SDS011;47850;50.274;18.908;2023-05-21T11:54:50;5.60;;;2.70;;
61897;SDS011;47850;50.274;18.908;2023-05-21T11:57:22;11.00;;;2.90;;
61897;SDS011;47850;50.274;18.908;2023-05-21T11:59:53;9.40;;;2.40;;
61897;SDS011;47850;50.274;18.908;2023-05-21T12:02:21;6.80;;;2.50;;
61897;SDS011;47850;50.274;18.908;2023-05-21T12:04:49;5.40;;;2.60;;
61897;SDS011;47850;50.274;18.908;2023-05-21T12:07:18;9.40;;;2.40;;
61897;SDS011;47850;50.274;18.908;2023-05-21T12:09:48;7.30;;;2.40;;
61897;SDS011;47850;50.274;18.908;2023-05-21T12:12:18;8.30;;;3.90;;
61897;SDS011;47850;50.274;18.908;2023-05-21T12:14:49;5.00;;;3.10;;
61897;SDS011;47850;50.274;18.908;2023-05-21T12:19:47;4.20;;;2.30;;
61897;SDS011;47850;50.274;18.908;2023-05-21T12:22:16;8.10;;;2.70;;
61897;SDS011;47850;50.274;18.908;2023-05-21T12:24:44;26.00;;;2.90;;
61897;SDS011;47850;50.274;18.908;2023-05-21T12:27:12;25.80;;;3.10;;
61897;SDS011;47850;50.274;18.908;2023-05-21T12:29:43;7.40;;;2.30;;
61897;SDS011;47850;50.274;18.908;2023-05-21T12:32:13;6.40;;;2.20;;
61897;SDS011;47850;50.274;18.908;2023-05-21T12:34:46;12.50;;;2.80;;
61897;SDS011;47850;50.274;18.908;2023-05-21T12:37:27;5.70;;;2.40;;
61897;SDS011;47850;50.274;18.908;2023-05-21T12:40:02;7.50;;;2.90;;
61897;SDS011;47850;50.274;18.908;2023-05-21T12:42:38;7.40;;;2.50;;
61897;SDS011;47850;50.274;18.908;2023-05-21T12:45:06;6.50;;;2.30;;
61897;SDS011;47850;50.274;18.908;2023-05-21T12:47:35;7.40;;;2.30;;
61897;SDS011;47850;50.274;18.908;2023-05-21T12:50:04;5.00;;;2.30;;
61897;SDS011;47850;50.274;18.908;2023-05-21T12:52:38;6.40;;;2.50;;
61897;SDS011;47850;50.274;18.908;2023-05-21T12:55:11;6.90;;;2.50;;
61897;SDS011;47850;50.274;18.908;2023-05-21T12:57:40;8.10;;;2.50;;
61897;SDS011;47850;50.274;18.908;2023-05-21T13:00:10;11.70;;;2.30;;
61897;SDS011;47850;50.274;18.908;2023-05-21T13:02:42;7.70;;;2.50;;
61897;SDS011;47850;50.274;18.908;2023-05-21T13:05:14;26.30;;;3.20;;
61897;SDS011;47850;50.274;18.908;2023-05-21T13:07:46;3.90;;;2.20;;
61897;SDS011;47850;50.274;18.908;2023-05-21T13:10:14;6.80;;;2.40;;
61897;SDS011;47850;50.274;18.908;2023-05-21T13:12:45;11.10;;;2.40;;
61897;SDS011;47850;50.274;18.908;2023-05-21T13:15:13;4.50;;;2.30;;
61897;SDS011;47850;50.274;18.908;2023-05-21T13:17:41;9.00;;;2.60;;
61897;SDS011;47850;50.274;18.908;2023-05-21T13:20:10;7.40;;;2.40;;
61897;SDS011;47850;50.274;18.908;2023-05-21T13:22:39;5.30;;;2.60;;
61897;SDS011;47850;50.274;18.908;2023-05-21T13:25:09;8.00;;;2.60;;
61897;SDS011;47850;50.274;18.908;2023-05-21T13:27:38;9.10;;;2.60;;
61897;SDS011;47850;50.274;18.908;2023-05-21T13:30:06;6.80;;;2.50;;
61897;SDS011;47850;50.274;18.908;2023-05-21T13:32:35;5.40;;;2.30;;
61897;SDS011;47850;50.274;18.908;2023-05-21T13:35:03;6.80;;;2.40;;
61897;SDS011;47850;50.274;18.908;2023-05-21T13:37:34;7.70;;;2.30;;
61897;SDS011;47850;50.274;18.908;2023-05-21T13:40:03;7.60;;;2.40;;
61897;SDS011;47850;50.274;18.908;2023-05-21T13:42:32;3.20;;;2.10;;
61897;SDS011;47850;50.274;18.908;2023-05-21T13:47:28;6.60;;;2.70;;
61897;SDS011;47850;50.274;18.908;2023-05-21T13:49:56;6.00;;;2.50;;
61897;SDS011;47850;50.274;18.908;2023-05-21T13:52:24;5.90;;;2.60;;
61897;SDS011;47850;50.274;18.908;2023-05-21T13:54:56;6.10;;;2.90;;
61897;SDS011;47850;50.274;18.908;2023-05-21T13:57:24;9.80;;;2.60;;
61897;SDS011;47850;50.274;18.908;2023-05-21T13:59:53;3.70;;;2.80;;
61897;SDS011;47850;50.274;18.908;2023-05-21T14:02:21;8.50;;;3.20;;
61897;SDS011;47850;50.274;18.908;2023-05-21T14:04:49;8.10;;;3.00;;
61897;SDS011;47850;50.274;18.908;2023-05-21T14:07:17;7.00;;;3.90;;
61897;SDS011;47850;50.274;18.908;2023-05-21T14:09:45;5.90;;;3.00;;
61897;SDS011;47850;50.274;18.908;2023-05-21T14:14:42;9.60;;;2.90;;
61897;SDS011;47850;50.274;18.908;2023-05-21T14:17:10;9.50;;;2.40;;
61897;SDS011;47850;50.274;18.908;2023-05-21T14:19:37;4.50;;;2.50;;
61897;SDS011;47850;50.274;18.908;2023-05-21T14:22:05;4.20;;;3.00;;
61897;SDS011;47850;50.274;18.908;2023-05-21T14:24:33;3.50;;;2.20;;
61897;SDS011;47850;50.274;18.908;2023-05-21T14:27:01;10.80;;;3.30;;
61897;SDS011;47850;50.274;18.908;2023-05-21T14:29:29;11.80;;;5.30;;
61897;SDS011;47850;50.274;18.908;2023-05-21T14:31:57;5.50;;;3.20;;
61897;SDS011;47850;50.274;18.908;2023-05-21T14:34:25;3.70;;;2.40;;
61897;SDS011;47850;50.274;18.908;2023-05-21T14:36:53;9.90;;;2.80;;
61897;SDS011;47850;50.274;18.908;2023-05-21T14:39:20;8.40;;;2.30;;
61897;SDS011;47850;50.274;18.908;2023-05-21T14:41:48;8.10;;;2.50;;
61897;SDS011;47850;50.274;18.908;2023-05-21T14:44:16;7.30;;;2.60;;
61897;SDS011;47850;50.274;18.908;2023-05-21T14:46:44;5.80;;;2.30;;
61897;SDS011;47850;50.274;18.908;2023-05-21T14:51:40;7.10;;;2.20;;
61897;SDS011;47850;50.274;18.908;2023-05-21T14:54:10;7.60;;;2.60;;
61897;SDS011;47850;50.274;18.908;2023-05-21T14:56:38;4.10;;;2.70;;
61897;SDS011;47850;50.274;18.908;2023-05-21T14:59:05;7.50;;;2.40;;
61897;SDS011;47850;50.274;18.908;2023-05-21T15:04:01;9.10;;;2.70;;
61897;SDS011;47850;50.274;18.908;2023-05-21T15:06:29;7.30;;;2.70;;
61897;SDS011;47850;50.274;18.908;2023-05-21T15:08:57;6.80;;;3.50;;
61897;SDS011;47850;50.274;18.908;2023-05-21T15:13:53;7.10;;;2.50;;
61897;SDS011;47850;50.274;18.908;2023-05-21T15:18:48;11.60;;;3.20;;
61897;SDS011;47850;50.274;18.908;2023-05-21T15:21:17;8.60;;;3.30;;
61897;SDS011;47850;50.274;18.908;2023-05-21T15:26:12;7.40;;;2.60;;
61897;SDS011;47850;50.274;18.908;2023-05-21T15:31:08;7.60;;;3.10;;
61897;SDS011;47850;50.274;18.908;2023-05-21T15:33:35;7.60;;;2.80;;
61897;SDS011;47850;50.274;18.908;2023-05-21T15:36:03;8.90;;;2.50;;
61897;SDS011;47850;50.274;18.908;2023-05-21T15:38:31;4.20;;;2.70;;
61897;SDS011;47850;50.274;18.908;2023-05-21T15:41:00;9.30;;;2.90;;